Terminal Aerodrome Forecast
Issued by NWS Cleveland, OH

Home | Current Version | Previous Version | Graphics & Text | Print | Product List | Glossary On
Versions: 1 2 3 4 5 6 7 8 9 10 11 12 13 14 15 16 17
980
FTUS41 KCLE 200639 CCA
TAFERI
TAF COR
KERI 200639Z 2006/2106 22010KT P6SM VCSH OVC025
      TEMPO 2006/2008 3SM BR BKN008
     FM200800 26008KT 3SM BR OVC008
     FM201200 28008KT P6SM OVC004
     FM201600 30006KT P6SM BKN015
     FM201800 30008KT P6SM BKN035=

USA.gov is the U.S. government's official web portal to all federal, state and local government web resources and services.